createdAt,value
2023-01-19T00:01:44.444Z,6.45
2023-01-19T00:04:12.697Z,7.40
2023-01-19T00:06:42.374Z,5.65
2023-01-19T00:09:10.627Z,7.97
2023-01-19T00:11:39.381Z,5.90
2023-01-19T00:14:07.622Z,7.50
2023-01-19T00:16:35.883Z,5.50
2023-01-19T00:19:04.481Z,5.30
2023-01-19T00:21:32.765Z,6.80
2023-01-19T00:24:02.833Z,6.80
2023-01-19T00:26:31.099Z,10.13
2023-01-19T00:28:59.511Z,6.82
2023-01-19T00:31:30.075Z,6.70
2023-01-19T00:33:58.459Z,7.47
2023-01-19T00:36:26.973Z,7.82
2023-01-19T00:38:55.478Z,5.97
2023-01-19T00:41:52.001Z,8.80
2023-01-19T00:44:20.768Z,8.63
2023-01-19T00:46:49.061Z,8.60
2023-01-19T00:49:17.327Z,9.02
2023-01-19T00:51:45.908Z,9.00
2023-01-19T00:54:14.719Z,7.20
2023-01-19T00:56:44.475Z,6.72
2023-01-19T00:59:12.823Z,7.97
2023-01-19T01:01:45.991Z,8.75
2023-01-19T01:04:14.745Z,10.05
2023-01-19T01:06:43.013Z,9.38
2023-01-19T01:09:12.974Z,8.18
2023-01-19T01:11:41.756Z,9.87
2023-01-19T01:14:12.862Z,7.68
2023-01-19T01:16:41.617Z,9.32
2023-01-19T01:19:12.347Z,9.75
2023-01-19T01:21:41.072Z,10.17
2023-01-19T01:24:10.860Z,9.88
2023-01-19T01:26:39.407Z,9.18
2023-01-19T01:29:08.520Z,9.18
2023-01-19T01:31:38.313Z,9.63
2023-01-19T01:34:07.300Z,7.72
2023-01-19T01:36:36.195Z,8.48
2023-01-19T01:39:04.671Z,8.95
2023-01-19T01:41:33.543Z,9.32
2023-01-19T01:44:06.311Z,7.57
2023-01-19T01:46:34.726Z,7.80
2023-01-19T01:49:08.169Z,10.57
2023-01-19T01:51:40.418Z,6.72
2023-01-19T01:54:14.822Z,7.00
2023-01-19T01:56:45.366Z,5.38
2023-01-19T01:59:25.841Z,7.60
2023-01-19T02:02:13.571Z,6.18
2023-01-19T02:04:48.886Z,7.47
2023-01-19T02:07:42.630Z,6.55
2023-01-19T02:10:29.404Z,7.47
2023-01-19T02:13:16.182Z,8.00
2023-01-19T02:15:44.492Z,4.40
2023-01-19T02:18:12.966Z,6.95
2023-01-19T02:20:48.005Z,8.15
2023-01-19T02:23:21.316Z,8.05
2023-01-19T02:25:51.323Z,5.93
2023-01-19T02:28:20.071Z,5.25
2023-01-19T02:30:48.566Z,7.70
2023-01-19T02:33:16.898Z,8.90
2023-01-19T02:35:47.026Z,8.05
2023-01-19T02:38:17.776Z,5.28
2023-01-19T02:40:47.092Z,6.88
2023-01-19T02:43:19.121Z,6.57
2023-01-19T02:45:48.344Z,7.72
2023-01-19T02:48:18.071Z,5.10
2023-01-19T02:50:50.611Z,5.00
2023-01-19T02:53:39.137Z,6.28
2023-01-19T02:56:26.663Z,5.93
2023-01-19T02:59:02.577Z,6.68
2023-01-19T03:01:42.148Z,8.00
2023-01-19T03:04:18.011Z,7.05
2023-01-19T03:06:49.607Z,7.18
2023-01-19T03:09:28.454Z,6.72
2023-01-19T03:12:05.975Z,5.90
2023-01-19T03:14:41.645Z,4.95
2023-01-19T03:17:12.214Z,8.27
2023-01-19T03:19:43.418Z,6.40
2023-01-19T03:22:16.110Z,7.10
2023-01-19T03:24:47.357Z,6.05
2023-01-19T03:27:20.015Z,4.95
2023-01-19T03:29:53.822Z,6.82
2023-01-19T03:32:30.112Z,6.30
2023-01-19T03:35:02.173Z,5.68
2023-01-19T03:37:32.925Z,7.85
2023-01-19T03:40:01.572Z,7.37
2023-01-19T03:42:30.651Z,5.60
2023-01-19T03:45:02.782Z,6.43
2023-01-19T03:47:31.142Z,4.97
2023-01-19T03:50:03.063Z,4.70
2023-01-19T03:52:33.670Z,4.20
2023-01-19T03:55:04.000Z,5.75
2023-01-19T03:57:32.689Z,4.17
2023-01-19T04:00:02.442Z,4.43
2023-01-19T04:02:31.045Z,7.70
2023-01-19T04:04:59.322Z,4.57
2023-01-19T04:07:28.829Z,6.20
2023-01-19T04:09:57.754Z,6.60
2023-01-19T04:12:26.112Z,7.65
2023-01-19T04:14:54.642Z,5.53
2023-01-19T04:17:24.317Z,4.25
2023-01-19T04:19:53.581Z,5.83
2023-01-19T04:22:22.104Z,6.03
2023-01-19T04:24:50.933Z,5.45
2023-01-19T04:27:19.291Z,6.20
2023-01-19T04:29:47.696Z,5.32
2023-01-19T04:32:16.252Z,6.18
2023-01-19T04:34:45.969Z,5.22
2023-01-19T04:37:14.288Z,3.83
2023-01-19T04:39:42.492Z,6.57
2023-01-19T04:42:13.253Z,7.43
2023-01-19T04:44:41.485Z,5.05
2023-01-19T04:47:09.991Z,9.90
2023-01-19T04:49:38.548Z,5.35
2023-01-19T04:52:08.289Z,6.93
2023-01-19T04:54:36.609Z,3.90
2023-01-19T04:57:05.009Z,5.93
2023-01-19T04:59:33.253Z,5.00
2023-01-19T05:02:01.600Z,4.18
2023-01-19T05:04:30.204Z,7.67
2023-01-19T05:06:58.491Z,5.83
2023-01-19T05:09:28.303Z,5.97
2023-01-19T05:11:56.624Z,5.80
2023-01-19T05:14:24.862Z,7.85
2023-01-19T05:16:53.079Z,8.27
2023-01-19T05:19:21.329Z,6.67
2023-01-19T05:21:49.612Z,7.60
2023-01-19T05:24:18.497Z,7.35
2023-01-19T05:26:48.323Z,5.20
2023-01-19T05:29:16.897Z,5.35
2023-01-19T05:31:45.170Z,7.90
2023-01-19T05:34:14.646Z,5.65
2023-01-19T05:36:43.271Z,5.78
2023-01-19T05:39:11.597Z,4.85
2023-01-19T05:41:39.910Z,5.53
2023-01-19T05:44:10.601Z,4.85
2023-01-19T05:46:38.962Z,7.25
2023-01-19T05:49:07.898Z,8.63
2023-01-19T05:51:38.524Z,7.45
2023-01-19T05:54:07.462Z,6.05
2023-01-19T05:56:36.438Z,5.28
2023-01-19T05:59:04.666Z,8.35
2023-01-19T06:01:34.855Z,4.97
2023-01-19T06:04:03.183Z,4.18
2023-01-19T06:06:31.450Z,7.70
2023-01-19T06:08:59.704Z,5.20
2023-01-19T06:11:28.581Z,8.05
2023-01-19T06:13:56.835Z,6.90
2023-01-19T06:16:25.462Z,6.57
2023-01-19T06:18:55.981Z,5.63
2023-01-19T06:21:24.669Z,6.43
2023-01-19T06:23:52.951Z,4.95
2023-01-19T06:26:21.489Z,3.70
2023-01-19T06:28:52.111Z,6.18
2023-01-19T06:31:21.544Z,6.53
2023-01-19T06:33:50.295Z,6.50
2023-01-19T06:36:19.934Z,4.18
2023-01-19T06:38:48.176Z,7.78
2023-01-19T06:41:16.531Z,5.00
2023-01-19T06:43:44.757Z,5.78
2023-01-19T06:46:13.679Z,5.78
2023-01-19T06:48:42.021Z,5.80
2023-01-19T06:51:11.352Z,8.67
2023-01-19T06:53:41.052Z,7.78
2023-01-19T06:56:10.793Z,6.25
2023-01-19T06:58:39.680Z,5.30
2023-01-19T07:01:08.942Z,3.22
2023-01-19T07:03:38.648Z,6.22
2023-01-19T07:06:07.821Z,4.32
2023-01-19T07:08:37.124Z,5.38
2023-01-19T07:11:24.591Z,5.40
2023-01-19T07:13:56.947Z,4.97
2023-01-19T07:16:25.578Z,5.47
2023-01-19T07:18:53.971Z,7.53
2023-01-19T07:21:22.889Z,5.55
2023-01-19T07:23:51.800Z,6.82
2023-01-19T07:26:22.085Z,6.45
2023-01-19T07:28:50.756Z,5.03
2023-01-19T07:31:20.317Z,5.05
2023-01-19T07:33:48.659Z,7.53
2023-01-19T07:36:17.075Z,5.90
2023-01-19T07:38:45.616Z,5.97
2023-01-19T07:41:13.974Z,5.73
2023-01-19T07:43:43.726Z,5.88
2023-01-19T07:46:12.043Z,6.07
2023-01-19T07:48:40.310Z,7.53
2023-01-19T07:51:13.004Z,5.97
2023-01-19T07:53:42.078Z,6.40
2023-01-19T07:56:10.767Z,7.83
2023-01-19T07:58:39.087Z,8.13
2023-01-19T08:01:10.106Z,4.65
2023-01-19T08:03:39.051Z,5.80
2023-01-19T08:06:08.135Z,8.57
2023-01-19T08:08:36.433Z,7.55
2023-01-19T08:11:04.677Z,5.50
2023-01-19T08:13:32.951Z,7.55
2023-01-19T08:16:01.221Z,5.55
2023-01-19T08:18:31.004Z,6.20
2023-01-19T08:21:00.535Z,5.00
2023-01-19T08:23:29.345Z,5.38
2023-01-19T08:25:57.649Z,7.10
2023-01-19T08:28:26.211Z,10.02
2023-01-19T08:30:55.539Z,6.13
2023-01-19T08:33:25.541Z,8.35
2023-01-19T08:35:55.639Z,5.20
2023-01-19T08:38:24.855Z,7.68
2023-01-19T08:40:53.723Z,7.65
2023-01-19T08:43:21.964Z,5.20
2023-01-19T08:45:53.210Z,6.40
2023-01-19T08:48:23.660Z,7.13
2023-01-19T08:50:54.120Z,8.98
2023-01-19T08:53:24.965Z,5.32
2023-01-19T08:55:59.985Z,6.45
2023-01-19T08:58:28.786Z,8.02
2023-01-19T09:00:57.297Z,8.45
2023-01-19T09:03:26.020Z,8.50
2023-01-19T09:05:55.986Z,4.82
2023-01-19T09:08:24.298Z,7.10
2023-01-19T09:10:53.260Z,7.03
2023-01-19T09:13:22.361Z,6.45
2023-01-19T09:15:51.038Z,6.38
2023-01-19T09:18:22.658Z,6.97
2023-01-19T09:20:52.069Z,9.80
2023-01-19T09:23:22.786Z,8.13
2023-01-19T09:25:56.986Z,5.28
2023-01-19T09:28:26.033Z,5.75
2023-01-19T09:30:54.829Z,10.80
2023-01-19T09:33:23.805Z,7.13
2023-01-19T09:35:52.357Z,5.80
2023-01-19T09:38:22.538Z,7.55
2023-01-19T09:40:53.199Z,7.90
2023-01-19T09:43:32.990Z,7.60
2023-01-19T09:46:03.820Z,7.32
2023-01-19T09:48:45.944Z,6.70
2023-01-19T09:51:20.534Z,6.72
2023-01-19T09:53:58.331Z,6.97
2023-01-19T09:56:28.553Z,8.02
2023-01-19T09:58:56.831Z,8.35
2023-01-19T10:01:47.430Z,8.93
2023-01-19T10:04:31.105Z,7.20
2023-01-19T10:07:08.426Z,8.23
2023-01-19T10:09:47.829Z,6.47
2023-01-19T10:12:24.899Z,7.15
2023-01-19T10:14:59.244Z,8.20
2023-01-19T10:17:40.028Z,7.68
2023-01-19T10:20:18.012Z,6.68
2023-01-19T10:22:50.706Z,5.33
2023-01-19T10:25:24.090Z,11.15
2023-01-19T10:27:52.762Z,9.60
2023-01-19T10:30:24.593Z,5.20
2023-01-19T10:32:53.809Z,5.30
2023-01-19T10:35:25.234Z,8.20
2023-01-19T10:37:56.399Z,7.68
2023-01-19T10:40:33.483Z,6.65
2023-01-19T10:43:02.421Z,9.15
2023-01-19T10:45:32.791Z,9.25
2023-01-19T10:48:06.749Z,7.00
2023-01-19T10:50:39.841Z,7.00
2023-01-19T10:53:21.435Z,6.28
2023-01-19T10:56:13.480Z,7.70
2023-01-19T10:58:41.968Z,6.32
2023-01-19T11:01:19.286Z,7.67
2023-01-19T11:03:48.084Z,8.27
2023-01-19T11:06:31.787Z,8.88
2023-01-19T11:09:17.982Z,5.67
2023-01-19T11:11:50.422Z,6.68
2023-01-19T11:14:23.396Z,9.00
2023-01-19T11:16:55.465Z,4.65
2023-01-19T11:19:28.784Z,9.02
2023-01-19T11:22:16.334Z,7.13
2023-01-19T11:24:45.870Z,9.50
2023-01-19T11:27:21.215Z,4.32
2023-01-19T11:29:55.220Z,6.63
2023-01-19T11:32:25.244Z,6.57
2023-01-19T11:34:53.555Z,6.32
2023-01-19T11:37:31.247Z,5.57
2023-01-19T11:40:03.038Z,7.28
2023-01-19T11:42:37.256Z,8.70
2023-01-19T11:45:12.784Z,8.68
2023-01-19T11:47:44.240Z,7.67
2023-01-19T11:50:23.633Z,6.60
2023-01-19T11:52:55.215Z,8.77
2023-01-19T11:55:33.321Z,5.53
2023-01-19T11:58:05.400Z,7.80
2023-01-19T12:00:38.297Z,7.05
2023-01-19T12:03:14.991Z,5.80
2023-01-19T12:05:48.381Z,4.13
2023-01-19T12:08:21.675Z,6.72
2023-01-19T12:10:52.169Z,7.13
2023-01-19T12:13:23.940Z,6.75
2023-01-19T12:15:57.870Z,5.28
2023-01-19T12:18:31.733Z,3.33
2023-01-19T12:21:02.245Z,4.88
2023-01-19T12:23:44.607Z,4.68
2023-01-19T12:26:33.482Z,3.67
2023-01-19T12:29:19.862Z,3.53
2023-01-19T12:32:32.880Z,2.72
2023-01-19T12:35:01.378Z,3.80
2023-01-19T12:37:36.444Z,4.50
2023-01-19T12:40:23.155Z,3.70
2023-01-19T12:43:01.908Z,2.85
2023-01-19T12:45:34.704Z,4.20
2023-01-19T12:48:04.274Z,3.30
2023-01-19T12:50:37.940Z,5.28
2023-01-19T12:53:17.738Z,2.67
2023-01-19T12:55:47.628Z,3.65
2023-01-19T12:58:19.195Z,4.57
2023-01-19T13:00:51.337Z,5.57
2023-01-19T13:03:46.230Z,4.25
2023-01-19T13:06:14.619Z,3.47
2023-01-19T13:09:00.859Z,3.63
2023-01-19T13:11:34.123Z,4.53
2023-01-19T13:14:35.464Z,4.78
2023-01-19T13:17:21.763Z,3.65
2023-01-19T13:20:01.073Z,4.63
2023-01-19T13:23:08.729Z,2.50
2023-01-19T13:25:37.409Z,6.40
2023-01-19T13:28:12.111Z,4.05
2023-01-19T13:30:53.630Z,6.15
2023-01-19T13:33:25.746Z,6.03
2023-01-19T13:35:56.771Z,3.78
2023-01-19T13:38:27.227Z,3.75
2023-01-19T13:40:57.396Z,5.43
2023-01-19T13:43:31.145Z,6.65
2023-01-19T13:46:00.593Z,4.47
2023-01-19T13:48:31.604Z,5.28
2023-01-19T13:51:05.125Z,4.82
2023-01-19T13:53:34.242Z,2.43
2023-01-19T13:56:28.536Z,4.10
2023-01-19T13:59:01.855Z,3.42
2023-01-19T14:01:31.290Z,3.65
2023-01-19T14:04:01.719Z,4.50
2023-01-19T14:06:37.109Z,4.43
2023-01-19T14:09:10.149Z,6.47
2023-01-19T14:11:38.426Z,2.70
2023-01-19T14:14:06.677Z,6.27
2023-01-19T14:16:35.049Z,3.10
2023-01-19T14:19:05.473Z,3.58
2023-01-19T14:21:41.351Z,3.35
2023-01-19T14:24:11.341Z,4.30
2023-01-19T14:26:46.522Z,4.53
2023-01-19T14:29:26.495Z,3.07
2023-01-19T14:32:13.584Z,3.13
2023-01-19T14:34:44.961Z,3.38
2023-01-19T14:37:27.843Z,2.55
2023-01-19T14:40:00.586Z,3.22
2023-01-19T14:42:32.389Z,3.97
2023-01-19T14:45:02.918Z,3.90
2023-01-19T14:47:36.417Z,2.72
2023-01-19T14:50:21.687Z,4.15
2023-01-19T14:52:53.819Z,4.18
2023-01-19T14:55:25.203Z,4.80
2023-01-19T14:57:54.838Z,5.43
2023-01-19T15:00:23.734Z,3.40
2023-01-19T15:02:52.086Z,5.43
2023-01-19T15:05:21.909Z,3.33
2023-01-19T15:07:50.342Z,3.08
2023-01-19T15:10:24.118Z,4.32
2023-01-19T15:12:53.844Z,3.95
2023-01-19T15:15:25.922Z,5.10
2023-01-19T15:17:56.322Z,4.13
2023-01-19T15:20:26.266Z,3.95
2023-01-19T15:22:54.611Z,4.18
2023-01-19T15:25:26.182Z,3.00
2023-01-19T15:27:58.283Z,3.45
2023-01-19T15:30:29.784Z,3.53
2023-01-19T15:32:59.130Z,4.50
2023-01-19T15:35:28.916Z,4.15
2023-01-19T15:37:57.250Z,4.65
2023-01-19T15:40:25.707Z,4.27
2023-01-19T15:42:53.967Z,3.65
2023-01-19T15:45:36.994Z,3.95
2023-01-19T15:48:07.179Z,5.38
2023-01-19T15:50:38.652Z,7.28
2023-01-19T15:53:07.228Z,7.93
2023-01-19T15:55:35.599Z,8.32
2023-01-19T15:58:03.893Z,8.48
2023-01-19T16:00:33.414Z,11.40
2023-01-19T16:03:03.522Z,7.55
2023-01-19T16:05:42.467Z,8.32
2023-01-19T16:08:13.467Z,8.57
2023-01-19T16:10:41.936Z,7.90
2023-01-19T16:13:10.610Z,6.70
2023-01-19T16:15:39.521Z,5.55
2023-01-19T16:18:08.079Z,7.05
2023-01-19T16:20:36.379Z,8.88
2023-01-19T16:23:20.123Z,7.97
2023-01-19T16:25:58.800Z,7.80
2023-01-19T16:28:27.962Z,15.40
2023-01-19T16:30:56.279Z,12.55
2023-01-19T16:33:24.852Z,7.82
2023-01-19T16:35:53.231Z,9.15
2023-01-19T16:38:22.838Z,8.67
2023-01-19T16:40:51.221Z,12.90
2023-01-19T16:43:20.916Z,11.23
2023-01-19T16:46:00.493Z,7.25
2023-01-19T16:48:29.174Z,8.35
2023-01-19T16:51:02.320Z,14.35
2023-01-19T16:53:31.414Z,10.83
2023-01-19T16:55:59.772Z,12.52
2023-01-19T16:58:30.082Z,13.55
2023-01-19T17:00:58.466Z,17.67
2023-01-19T17:03:27.459Z,12.90
2023-01-19T17:05:55.706Z,15.88
2023-01-19T17:08:24.080Z,12.68
2023-01-19T17:10:52.356Z,13.07
2023-01-19T17:13:20.682Z,13.25
2023-01-19T17:15:50.398Z,15.60
2023-01-19T17:18:18.648Z,17.55
2023-01-19T17:20:47.000Z,13.77
2023-01-19T17:23:15.396Z,19.90
2023-01-19T17:25:43.701Z,19.13
2023-01-19T17:28:12.203Z,14.40
2023-01-19T17:30:40.643Z,17.80
2023-01-19T17:33:10.383Z,15.47
2023-01-19T17:35:38.783Z,13.38
2023-01-19T17:38:07.319Z,25.58
2023-01-19T17:40:35.622Z,30.92
2023-01-19T17:43:03.867Z,24.27
2023-01-19T17:45:32.182Z,32.83
2023-01-19T17:48:00.552Z,25.17
2023-01-19T17:50:30.316Z,26.88
2023-01-19T17:52:58.652Z,23.48
2023-01-19T17:55:26.983Z,21.48
2023-01-19T17:57:55.316Z,19.92
2023-01-19T18:00:24.292Z,10.52
2023-01-19T18:02:53.219Z,9.30
2023-01-19T18:05:21.963Z,8.18
2023-01-19T18:07:51.660Z,13.77
2023-01-19T18:10:20.081Z,11.73
2023-01-19T18:12:48.376Z,10.75
2023-01-19T18:15:17.097Z,11.80
2023-01-19T18:17:45.575Z,21.70
2023-01-19T18:20:14.344Z,18.88
2023-01-19T18:22:42.869Z,22.35
2023-01-19T18:25:12.663Z,26.52
2023-01-19T18:27:40.917Z,19.13
2023-01-19T18:30:10.523Z,25.15
2023-01-19T18:32:38.902Z,34.53
2023-01-19T18:35:08.399Z,18.45
2023-01-19T18:37:36.679Z,19.40
2023-01-19T18:40:05.392Z,17.07
2023-01-19T18:42:35.233Z,19.98
2023-01-19T18:45:03.701Z,23.40
2023-01-19T18:47:34.468Z,20.13
2023-01-19T18:50:02.830Z,19.73
2023-01-19T18:52:32.361Z,13.75
2023-01-19T18:55:00.956Z,15.73
2023-01-19T18:57:29.293Z,9.73
2023-01-19T18:59:59.008Z,9.45
2023-01-19T19:02:27.385Z,11.13
2023-01-19T19:04:55.632Z,13.63
2023-01-19T19:07:24.198Z,12.65
2023-01-19T19:09:52.455Z,11.63
2023-01-19T19:12:20.849Z,18.60
2023-01-19T19:14:49.340Z,13.35
2023-01-19T19:17:19.379Z,13.05
2023-01-19T19:19:47.668Z,12.10
2023-01-19T19:22:16.138Z,15.20
2023-01-19T19:24:44.348Z,15.95
2023-01-19T19:27:14.441Z,13.55
2023-01-19T19:29:44.067Z,13.40
2023-01-19T19:32:12.439Z,10.88
2023-01-19T19:34:42.350Z,9.40
2023-01-19T19:37:10.615Z,15.38
2023-01-19T19:39:39.448Z,11.10
2023-01-19T19:42:07.700Z,18.77
2023-01-19T19:44:36.067Z,24.92
2023-01-19T19:47:04.442Z,22.42
2023-01-19T19:49:32.698Z,28.30
2023-01-19T19:52:02.320Z,27.88
2023-01-19T19:54:30.784Z,27.27
2023-01-19T19:56:59.169Z,35.20
2023-01-19T19:59:27.440Z,18.47
2023-01-19T20:01:55.832Z,30.27
2023-01-19T20:04:25.390Z,35.75
2023-01-19T20:06:54.204Z,23.83
2023-01-19T20:09:23.856Z,11.15
2023-01-19T20:11:52.424Z,9.85
2023-01-19T20:14:22.485Z,8.40
2023-01-19T20:16:50.835Z,10.27
2023-01-19T20:19:19.181Z,10.40
2023-01-19T20:21:47.477Z,10.13
2023-01-19T20:24:18.008Z,10.98
2023-01-19T20:26:50.427Z,9.63
2023-01-19T20:29:19.707Z,12.95
2023-01-19T20:31:50.911Z,12.57
2023-01-19T20:34:21.277Z,16.30
2023-01-19T20:36:53.280Z,14.55
2023-01-19T20:39:23.165Z,18.08
2023-01-19T20:41:53.674Z,15.45
2023-01-19T20:44:23.903Z,13.68
2023-01-19T20:46:53.449Z,10.60
2023-01-19T20:49:22.239Z,11.45
2023-01-19T20:51:52.180Z,11.05
2023-01-19T20:54:22.993Z,12.10
2023-01-19T20:56:52.628Z,9.88
2023-01-19T20:59:20.888Z,9.43
2023-01-19T21:01:49.722Z,11.15
2023-01-19T21:04:18.466Z,9.20
2023-01-19T21:06:47.431Z,12.02
2023-01-19T21:09:15.685Z,9.82
2023-01-19T21:11:43.934Z,11.20
2023-01-19T21:14:13.622Z,9.75
2023-01-19T21:16:42.639Z,10.33
2023-01-19T21:19:11.941Z,11.65
2023-01-19T21:21:40.256Z,10.20
2023-01-19T21:24:10.804Z,11.20
2023-01-19T21:26:39.227Z,12.43
2023-01-19T21:29:07.451Z,14.45
2023-01-19T21:31:37.398Z,17.90
2023-01-19T21:34:05.751Z,13.95
2023-01-19T21:36:34.133Z,15.80
2023-01-19T21:39:02.542Z,15.18
2023-01-19T21:41:31.221Z,12.30
2023-01-19T21:44:01.309Z,12.23
2023-01-19T21:46:30.626Z,10.88
2023-01-19T21:49:01.996Z,11.52
2023-01-19T21:51:33.607Z,7.77
2023-01-19T21:54:02.370Z,8.90
2023-01-19T21:56:32.117Z,13.65
2023-01-19T21:59:02.585Z,9.73
2023-01-19T22:01:31.405Z,10.30
2023-01-19T22:04:01.411Z,11.00
2023-01-19T22:06:30.141Z,11.57
2023-01-19T22:09:00.736Z,10.82
2023-01-19T22:11:30.207Z,9.70
2023-01-19T22:14:00.036Z,10.20
2023-01-19T22:16:29.411Z,14.13
2023-01-19T22:19:02.104Z,11.27
2023-01-19T22:21:33.047Z,10.82
2023-01-19T22:24:03.181Z,11.30
2023-01-19T22:26:34.225Z,10.07
2023-01-19T22:29:03.667Z,11.43
2023-01-19T22:31:32.725Z,11.70
2023-01-19T22:34:02.528Z,14.38
2023-01-19T22:36:33.975Z,10.90
2023-01-19T22:39:03.567Z,12.37
2023-01-19T22:41:33.488Z,11.23
2023-01-19T22:44:03.119Z,13.32
2023-01-19T22:46:33.268Z,13.93
2023-01-19T22:49:03.444Z,13.32
2023-01-19T22:51:33.261Z,12.90
2023-01-19T22:54:02.227Z,13.90
2023-01-19T22:56:31.764Z,14.30
2023-01-19T22:59:00.777Z,11.33
2023-01-19T23:01:30.684Z,11.45
2023-01-19T23:03:59.162Z,13.02
2023-01-19T23:06:31.340Z,14.15
2023-01-19T23:09:02.782Z,14.10
2023-01-19T23:11:35.833Z,12.45
2023-01-19T23:14:05.128Z,12.48
2023-01-19T23:16:33.443Z,12.60
2023-01-19T23:19:01.802Z,13.67
2023-01-19T23:21:32.376Z,13.30
2023-01-19T23:24:02.746Z,13.18
2023-01-19T23:26:37.989Z,14.20
2023-01-19T23:29:09.619Z,14.80
2023-01-19T23:31:39.691Z,16.23
2023-01-19T23:34:09.612Z,15.98
2023-01-19T23:36:41.486Z,15.35
2023-01-19T23:39:14.524Z,17.08
2023-01-19T23:41:43.283Z,16.97
2023-01-19T23:44:11.610Z,25.05
2023-01-19T23:46:40.073Z,27.97
2023-01-19T23:49:08.463Z,28.05
2023-01-19T23:51:38.126Z,25.60
2023-01-19T23:54:06.488Z,30.50
2023-01-19T23:56:36.747Z,29.55
2023-01-19T23:59:07.332Z,26.00
